Lady Marie — WDC8189 — position and weather

sailwx.info

Track history (hours):
 
Tides and Currents Weather Stations Pressure Air Temp Water Temp Dewpoint Dewpoint Depression Visibility Wind Speed Wind Dir Waves Ship Positions

Lady Marie

Owner: Iberia Marine Service LLC, New Iberia, LA. More information available from US FCC via Universal Licensing System and Coast Guard Vessel Documentation Center.

Last reported at 2017-Oct-22 23:00 UTC. Time now 2017-Oct-22 23:05 UTC.
Position N 29°47' W 092°09'.

Length 41 m; draft 2 m.

Type: Passenger vessel. MMSI: 367083020.

Date/timePositionNaut miles runAvg speedWind from/ knotsBaromVisibWave heightAir tempDewpointWater temp
2017-Oct-22 23:00N 29°47' W 092°09'0 0.0
2017-Oct-22 22:30N 29°47' W 092°09'0 0.0
2017-Oct-22 22:00N 29°47' W 092°09'0 0.8
2017-Oct-22 21:30N 29°47' W 092°09'815.1
2017-Oct-22 21:01N 29°42' W 092°15'9 0.2
2017-Oct-20 23:47N 29°33' W 092°18'310.6
2017-Oct-20 23:31N 29°36' W 092°17'918.5
2017-Oct-20 23:00N 29°45' W 092°13'5 9.4
2017-Oct-20 22:30N 29°47' W 092°09'0 0.0
2017-Oct-20 22:00N 29°47' W 092°09'0 0.0
2017-Oct-20 21:30N 29°47' W 092°09'0 0.0
2017-Oct-20 21:00N 29°47' W 092°09'0 0.0
2017-Oct-20 20:30N 29°47' W 092°09'0 0.0
2017-Oct-20 20:00N 29°47' W 092°09'0 0.0
2017-Oct-20 19:30N 29°47' W 092°09'0 0.0
2017-Oct-20 19:00N 29°47' W 092°09'0 0.0
2017-Oct-20 18:30N 29°47' W 092°09'0 0.0
2017-Oct-20 18:00N 29°47' W 092°09'0 0.0
2017-Oct-20 17:30N 29°47' W 092°09'0 0.0
2017-Oct-20 17:00N 29°47' W 092°09'0 0.0
2017-Oct-20 16:30N 29°47' W 092°09'0 0.0
2017-Oct-20 16:00N 29°47' W 092°09'0 0.0
2017-Oct-20 15:30N 29°47' W 092°09'0 0.0
2017-Oct-20 15:00N 29°47' W 092°09'0 0.0
2017-Oct-20 14:30N 29°47' W 092°09'0 0.0
2017-Oct-20 13:30N 29°47' W 092°09'0 0.0
2017-Oct-20 01:21N 29°47' W 092°09'0 0.0
2017-Oct-20 01:00N 29°47' W 092°09'0 0.0
2017-Oct-20 00:30N 29°47' W 092°09'0 0.0
2017-Oct-20 00:00N 29°47' W 092°09'510.6
2017-Oct-19 23:30N 29°44' W 092°14'11 0.7
2017-Oct-19 06:48N 29°34' W 092°18'2 6.5
2017-Oct-19 06:29N 29°36' W 092°17'713.8
2017-Oct-19 06:01N 29°42' W 092°15'612.3
2017-Oct-19 05:30N 29°47' W 092°10'1 2.5
2017-Oct-19 05:00N 29°47' W 092°09'0 0.0
2017-Oct-19 04:30N 29°47' W 092°09'0 0.0
2017-Oct-19 04:00N 29°47' W 092°09'0 0.0
2017-Oct-19 03:30N 29°47' W 092°09'0 0.0
2017-Oct-19 03:00N 29°47' W 092°09'0 0.0
2017-Oct-19 02:30N 29°47' W 092°09'0 0.0
2017-Oct-19 02:00N 29°47' W 092°09'0 0.5
2017-Oct-19 01:30N 29°48' W 092°09'0 0.0
2017-Oct-19 01:00N 29°48' W 092°09'0 0.0
2017-Oct-19 00:30N 29°48' W 092°09'0 0.0
2017-Oct-19 00:00N 29°48' W 092°09'0 0.0
2017-Oct-18 23:30N 29°48' W 092°09'0 0.0
2017-Oct-18 23:00N 29°48' W 092°09'0 0.3
2017-Oct-18 22:30N 29°47' W 092°09'0 0.0
2017-Oct-18 22:00N 29°47' W 092°09'0 0.2
2017-Oct-18 21:30N 29°47' W 092°09'0 0.0
2017-Oct-18 21:00N 29°47' W 092°09'0 0.0
2017-Oct-18 20:30N 29°47' W 092°09'0 0.0
2017-Oct-18 20:00N 29°47' W 092°09'4 8.6
2017-Oct-18 19:31N 29°45' W 092°13'12 1.2
2017-Oct-18 09:24N 29°34' W 092°18'615.4
2017-Oct-18 09:01N 29°40' W 092°15'612.9
2017-Oct-18 08:30N 29°45' W 092°12'3 6.8
2017-Oct-18 08:00N 29°47' W 092°09'0 0.0
2017-Oct-18 07:30N 29°47' W 092°09'0 0.0
2017-Oct-18 07:00N 29°47' W 092°09'0 0.0
2017-Oct-18 06:30N 29°47' W 092°09'0 0.0
2017-Oct-18 06:00N 29°47' W 092°09'0 0.0
2017-Oct-18 05:30N 29°47' W 092°09'0 0.0
2017-Oct-18 05:00N 29°47' W 092°09'0 0.0
2017-Oct-18 04:30N 29°47' W 092°09'0 0.0
2017-Oct-18 04:00N 29°47' W 092°09'0 0.0
2017-Oct-18 03:30N 29°47' W 092°09'0 0.0
2017-Oct-18 03:00N 29°47' W 092°09'0 0.0
2017-Oct-18 02:30N 29°47' W 092°09'0 0.0
2017-Oct-18 02:00N 29°47' W 092°09'0 0.0
2017-Oct-18 01:30N 29°47' W 092°09'0 0.0
2017-Oct-18 01:00N 29°47' W 092°09'4 7.9
2017-Oct-18 00:31N 29°45' W 092°12'12 0.8
2017-Oct-17 10:24N 29°34' W 092°18'614.8
2017-Oct-17 10:00N 29°40' W 092°15'612.7
2017-Oct-17 09:30N 29°45' W 092°12'4 7.4
2017-Oct-17 09:00N 29°47' W 092°09'0 0.0
2017-Oct-17 08:30N 29°47' W 092°09'0 0.0
2017-Oct-17 08:00N 29°47' W 092°09'0 0.0
2017-Oct-17 07:30N 29°47' W 092°09'0 0.0
2017-Oct-17 07:00N 29°47' W 092°09'0 0.0
2017-Oct-17 06:30N 29°47' W 092°09'0 0.0
2017-Oct-17 06:00N 29°47' W 092°09'0 0.0
2017-Oct-17 05:30N 29°47' W 092°09'0 0.0
2017-Oct-17 05:00N 29°47' W 092°09'2 4.0
2017-Oct-17 04:30N 29°47' W 092°11'0 0.0
2017-Oct-17 04:00N 29°47' W 092°11'0 0.0
2017-Oct-17 03:31N 29°47' W 092°11'0 0.0
2017-Oct-17 03:01N 29°47' W 092°11'0 0.0
2017-Oct-17 02:30N 29°47' W 092°11'0 0.0
2017-Oct-17 02:01N 29°47' W 092°11'2 4.0
2017-Oct-17 01:31N 29°47' W 092°09'713.5
2017-Oct-17 01:00N 29°43' W 092°15'7 0.3
2017-Oct-16 04:56N 29°37' W 092°17'819.8
2017-Oct-16 04:30N 29°45' W 092°13'510.0
2017-Oct-16 04:00N 29°47' W 092°09'2 3.8
2017-Oct-16 03:30N 29°47' W 092°11'0 0.5
2017-Oct-16 03:00N 29°47' W 092°11'0 0.1
2017-Oct-16 02:30N 29°47' W 092°11'2 4.1
2017-Oct-16 02:00N 29°47' W 092°09'0 0.0
2017-Oct-16 01:30N 29°47' W 092°09'0 0.0
2017-Oct-16 01:00N 29°47' W 092°09'0 0.0
2017-Oct-16 00:30N 29°47' W 092°09'0 0.0
2017-Oct-16 00:00N 29°47' W 092°09'0 0.0
2017-Oct-15 23:30N 29°47' W 092°09'0 0.0
2017-Oct-15 23:00N 29°47' W 092°09'0 0.0
2017-Oct-15 22:30N 29°47' W 092°09'0 0.0
2017-Oct-15 22:00N 29°47' W 092°09'0 0.0
2017-Oct-15 21:30N 29°47' W 092°09'0 0.0
2017-Oct-15 21:00N 29°47' W 092°09'0 0.0
2017-Oct-15 20:30N 29°47' W 092°09'0 0.0
2017-Oct-15 20:00N 29°47' W 092°09'0 0.0
2017-Oct-15 19:30N 29°47' W 092°09'0 0.0
2017-Oct-15 19:00N 29°47' W 092°09'0 0.0
2017-Oct-15 18:30N 29°47' W 092°09'0 0.0
2017-Oct-15 18:00N 29°47' W 092°09'0 0.0
2017-Oct-15 17:30N 29°47' W 092°09'0 0.0
2017-Oct-15 17:00N 29°47' W 092°09'0 0.0
2017-Oct-15 16:30N 29°47' W 092°09'0 0.0
2017-Oct-15 16:00N 29°47' W 092°09'0 0.0
2017-Oct-15 15:30N 29°47' W 092°09'0 0.0
2017-Oct-15 15:00N 29°47' W 092°09'0 0.0
2017-Oct-15 14:00N 29°47' W 092°09'0 0.0
2017-Oct-15 13:30N 29°47' W 092°09'0 0.0
2017-Oct-15 13:00N 29°47' W 092°09'0 0.0
2017-Oct-15 12:30N 29°47' W 092°09'0 0.0
2017-Oct-15 12:00N 29°47' W 092°09'0 0.0
2017-Oct-15 11:30N 29°47' W 092°09'0 0.0
2017-Oct-15 11:00N 29°47' W 092°09'0 0.0
2017-Oct-15 10:30N 29°47' W 092°09'0 0.0
2017-Oct-15 10:00N 29°47' W 092°09'0 0.0
2017-Oct-15 09:30N 29°47' W 092°09'0 0.0
2017-Oct-15 09:00N 29°47' W 092°09'0 0.0
2017-Oct-15 08:30N 29°47' W 092°09'0 0.0
2017-Oct-15 08:00N 29°47' W 092°09'0 0.0
2017-Oct-15 07:30N 29°47' W 092°09'0 0.0
2017-Oct-15 07:00N 29°47' W 092°09'0 0.0
2017-Oct-15 06:30N 29°47' W 092°09'0 0.0
2017-Oct-15 06:00N 29°47' W 092°09'0 0.0
2017-Oct-15 05:30N 29°47' W 092°09'0 0.0
2017-Oct-15 05:00N 29°47' W 092°09'0 0.0
2017-Oct-15 04:30N 29°47' W 092°09'0 0.0
2017-Oct-15 04:00N 29°47' W 092°09'0 0.0
2017-Oct-15 03:30N 29°47' W 092°09'0 0.0
2017-Oct-15 03:00N 29°47' W 092°09'0 0.0
2017-Oct-15 02:30N 29°47' W 092°09'0 0.0
2017-Oct-15 02:00N 29°47' W 092°09'0 0.0
2017-Oct-15 01:30N 29°47' W 092°09'0 0.0
2017-Oct-15 01:00N 29°47' W 092°09'0 0.0
2017-Oct-15 00:30N 29°47' W 092°09'0 0.0
2017-Oct-15 00:00N 29°47' W 092°09'0 0.0
2017-Oct-14 23:30N 29°47' W 092°09'0 0.0
2017-Oct-14 23:00N 29°47' W 092°09'0 0.0
2017-Oct-14 22:30N 29°47' W 092°09'0 0.0
2017-Oct-14 22:00N 29°47' W 092°09'0 0.0
2017-Oct-14 21:30N 29°47' W 092°09'0 0.0
2017-Oct-14 21:00N 29°47' W 092°09'0 0.0
2017-Oct-14 20:30N 29°47' W 092°09'0 0.0
2017-Oct-14 20:00N 29°47' W 092°09'0 0.0
2017-Oct-14 19:30N 29°47' W 092°09'0 0.0
2017-Oct-14 19:00N 29°47' W 092°09'0 0.0
2017-Oct-14 18:30N 29°47' W 092°09'4 8.5
2017-Oct-14 18:00N 29°45' W 092°13'12 0.3
2017-Oct-13 02:52N 29°34' W 092°18'719.6
2017-Oct-13 02:30N 29°40' W 092°15'714.8
2017-Oct-13 02:00N 29°47' W 092°11'0 0.0
2017-Oct-13 01:30N 29°47' W 092°11'0 0.0
2017-Oct-13 01:00N 29°47' W 092°11'0 0.0
2017-Oct-13 00:30N 29°47' W 092°11'2 4.1
2017-Oct-13 00:00N 29°47' W 092°09'0 0.0
2017-Oct-12 23:30N 29°47' W 092°09'  
Track history (hours):
 
Tides and Currents Weather Stations Pressure Air Temp Water Temp Dewpoint Dewpoint Depression Visibility Wind Speed Wind Dir Waves Ship Positions

Lady Marie

Owner: Iberia Marine Service LLC, New Iberia, LA. More information available from US FCC via Universal Licensing System and Coast Guard Vessel Documentation Center.

Last reported at 2017-Oct-22 23:00 UTC. Time now 2017-Oct-22 23:05 UTC.
Position N 29°47' W 092°09'.

Length 41 m; draft 2 m.

Type: Passenger vessel. MMSI: 367083020.

Date/timePositionNaut miles runAvg speedWind from/ knotsBaromVisibWave heightAir tempDewpointWater temp
2017-Oct-22 23:00N 29°47' W 092°09'0 0.0
2017-Oct-22 22:30N 29°47' W 092°09'0 0.0
2017-Oct-22 22:00N 29°47' W 092°09'0 0.8
2017-Oct-22 21:30N 29°47' W 092°09'815.1
2017-Oct-22 21:01N 29°42' W 092°15'9 0.2
2017-Oct-20 23:47N 29°33' W 092°18'310.6
2017-Oct-20 23:31N 29°36' W 092°17'918.5
2017-Oct-20 23:00N 29°45' W 092°13'5 9.4
2017-Oct-20 22:30N 29°47' W 092°09'0 0.0
2017-Oct-20 22:00N 29°47' W 092°09'0 0.0
2017-Oct-20 21:30N 29°47' W 092°09'0 0.0
2017-Oct-20 21:00N 29°47' W 092°09'0 0.0
2017-Oct-20 20:30N 29°47' W 092°09'0 0.0
2017-Oct-20 20:00N 29°47' W 092°09'0 0.0
2017-Oct-20 19:30N 29°47' W 092°09'0 0.0
2017-Oct-20 19:00N 29°47' W 092°09'0 0.0
2017-Oct-20 18:30N 29°47' W 092°09'0 0.0
2017-Oct-20 18:00N 29°47' W 092°09'0 0.0
2017-Oct-20 17:30N 29°47' W 092°09'0 0.0
2017-Oct-20 17:00N 29°47' W 092°09'0 0.0
2017-Oct-20 16:30N 29°47' W 092°09'0 0.0
2017-Oct-20 16:00N 29°47' W 092°09'0 0.0
2017-Oct-20 15:30N 29°47' W 092°09'0 0.0
2017-Oct-20 15:00N 29°47' W 092°09'0 0.0
2017-Oct-20 14:30N 29°47' W 092°09'0 0.0
2017-Oct-20 13:30N 29°47' W 092°09'0 0.0
2017-Oct-20 01:21N 29°47' W 092°09'0 0.0
2017-Oct-20 01:00N 29°47' W 092°09'0 0.0
2017-Oct-20 00:30N 29°47' W 092°09'0 0.0
2017-Oct-20 00:00N 29°47' W 092°09'510.6
2017-Oct-19 23:30N 29°44' W 092°14'11 0.7
2017-Oct-19 06:48N 29°34' W 092°18'2 6.5
2017-Oct-19 06:29N 29°36' W 092°17'713.8
2017-Oct-19 06:01N 29°42' W 092°15'612.3
2017-Oct-19 05:30N 29°47' W 092°10'1 2.5
2017-Oct-19 05:00N 29°47' W 092°09'0 0.0
2017-Oct-19 04:30N 29°47' W 092°09'0 0.0
2017-Oct-19 04:00N 29°47' W 092°09'0 0.0
2017-Oct-19 03:30N 29°47' W 092°09'0 0.0
2017-Oct-19 03:00N 29°47' W 092°09'0 0.0
2017-Oct-19 02:30N 29°47' W 092°09'0 0.0
2017-Oct-19 02:00N 29°47' W 092°09'0 0.5
2017-Oct-19 01:30N 29°48' W 092°09'0 0.0
2017-Oct-19 01:00N 29°48' W 092°09'0 0.0
2017-Oct-19 00:30N 29°48' W 092°09'0 0.0
2017-Oct-19 00:00N 29°48' W 092°09'0 0.0
2017-Oct-18 23:30N 29°48' W 092°09'0 0.0
2017-Oct-18 23:00N 29°48' W 092°09'0 0.3
2017-Oct-18 22:30N 29°47' W 092°09'0 0.0
2017-Oct-18 22:00N 29°47' W 092°09'0 0.2
2017-Oct-18 21:30N 29°47' W 092°09'0 0.0
2017-Oct-18 21:00N 29°47' W 092°09'0 0.0
2017-Oct-18 20:30N 29°47' W 092°09'0 0.0
2017-Oct-18 20:00N 29°47' W 092°09'4 8.6
2017-Oct-18 19:31N 29°45' W 092°13'12 1.2
2017-Oct-18 09:24N 29°34' W 092°18'615.4
2017-Oct-18 09:01N 29°40' W 092°15'612.9
2017-Oct-18 08:30N 29°45' W 092°12'3 6.8
2017-Oct-18 08:00N 29°47' W 092°09'0 0.0
2017-Oct-18 07:30N 29°47' W 092°09'0 0.0
2017-Oct-18 07:00N 29°47' W 092°09'0 0.0
2017-Oct-18 06:30N 29°47' W 092°09'0 0.0
2017-Oct-18 06:00N 29°47' W 092°09'0 0.0
2017-Oct-18 05:30N 29°47' W 092°09'0 0.0
2017-Oct-18 05:00N 29°47' W 092°09'0 0.0
2017-Oct-18 04:30N 29°47' W 092°09'0 0.0
2017-Oct-18 04:00N 29°47' W 092°09'0 0.0
2017-Oct-18 03:30N 29°47' W 092°09'0 0.0
2017-Oct-18 03:00N 29°47' W 092°09'0 0.0
2017-Oct-18 02:30N 29°47' W 092°09'0 0.0
2017-Oct-18 02:00N 29°47' W 092°09'0 0.0
2017-Oct-18 01:30N 29°47' W 092°09'0 0.0
2017-Oct-18 01:00N 29°47' W 092°09'4 7.9
2017-Oct-18 00:31N 29°45' W 092°12'12 0.8
2017-Oct-17 10:24N 29°34' W 092°18'614.8
2017-Oct-17 10:00N 29°40' W 092°15'612.7
2017-Oct-17 09:30N 29°45' W 092°12'4 7.4
2017-Oct-17 09:00N 29°47' W 092°09'0 0.0
2017-Oct-17 08:30N 29°47' W 092°09'0 0.0
2017-Oct-17 08:00N 29°47' W 092°09'0 0.0
2017-Oct-17 07:30N 29°47' W 092°09'0 0.0
2017-Oct-17 07:00N 29°47' W 092°09'0 0.0
2017-Oct-17 06:30N 29°47' W 092°09'0 0.0
2017-Oct-17 06:00N 29°47' W 092°09'0 0.0
2017-Oct-17 05:30N 29°47' W 092°09'0 0.0
2017-Oct-17 05:00N 29°47' W 092°09'2 4.0
2017-Oct-17 04:30N 29°47' W 092°11'0 0.0
2017-Oct-17 04:00N 29°47' W 092°11'0 0.0
2017-Oct-17 03:31N 29°47' W 092°11'0 0.0
2017-Oct-17 03:01N 29°47' W 092°11'0 0.0
2017-Oct-17 02:30N 29°47' W 092°11'0 0.0
2017-Oct-17 02:01N 29°47' W 092°11'2 4.0
2017-Oct-17 01:31N 29°47' W 092°09'713.5
2017-Oct-17 01:00N 29°43' W 092°15'7 0.3
2017-Oct-16 04:56N 29°37' W 092°17'819.8
2017-Oct-16 04:30N 29°45' W 092°13'510.0
2017-Oct-16 04:00N 29°47' W 092°09'2 3.8
2017-Oct-16 03:30N 29°47' W 092°11'0 0.5
2017-Oct-16 03:00N 29°47' W 092°11'0 0.1
2017-Oct-16 02:30N 29°47' W 092°11'2 4.1
2017-Oct-16 02:00N 29°47' W 092°09'0 0.0
2017-Oct-16 01:30N 29°47' W 092°09'0 0.0
2017-Oct-16 01:00N 29°47' W 092°09'0 0.0
2017-Oct-16 00:30N 29°47' W 092°09'0 0.0
2017-Oct-16 00:00N 29°47' W 092°09'0 0.0
2017-Oct-15 23:30N 29°47' W 092°09'0 0.0
2017-Oct-15 23:00N 29°47' W 092°09'0 0.0
2017-Oct-15 22:30N 29°47' W 092°09'0 0.0
2017-Oct-15 22:00N 29°47' W 092°09'0 0.0
2017-Oct-15 21:30N 29°47' W 092°09'0 0.0
2017-Oct-15 21:00N 29°47' W 092°09'0 0.0
2017-Oct-15 20:30N 29°47' W 092°09'0 0.0
2017-Oct-15 20:00N 29°47' W 092°09'0 0.0
2017-Oct-15 19:30N 29°47' W 092°09'0 0.0
2017-Oct-15 19:00N 29°47' W 092°09'0 0.0
2017-Oct-15 18:30N 29°47' W 092°09'0 0.0
2017-Oct-15 18:00N 29°47' W 092°09'0 0.0
2017-Oct-15 17:30N 29°47' W 092°09'0 0.0
2017-Oct-15 17:00N 29°47' W 092°09'0 0.0
2017-Oct-15 16:30N 29°47' W 092°09'0 0.0
2017-Oct-15 16:00N 29°47' W 092°09'0 0.0
2017-Oct-15 15:30N 29°47' W 092°09'0 0.0
2017-Oct-15 15:00N 29°47' W 092°09'0 0.0
2017-Oct-15 14:00N 29°47' W 092°09'0 0.0
2017-Oct-15 13:30N 29°47' W 092°09'0 0.0
2017-Oct-15 13:00N 29°47' W 092°09'0 0.0
2017-Oct-15 12:30N 29°47' W 092°09'0 0.0
2017-Oct-15 12:00N 29°47' W 092°09'0 0.0
2017-Oct-15 11:30N 29°47' W 092°09'0 0.0
2017-Oct-15 11:00N 29°47' W 092°09'0 0.0
2017-Oct-15 10:30N 29°47' W 092°09'0 0.0
2017-Oct-15 10:00N 29°47' W 092°09'0 0.0
2017-Oct-15 09:30N 29°47' W 092°09'0 0.0
2017-Oct-15 09:00N 29°47' W 092°09'0 0.0
2017-Oct-15 08:30N 29°47' W 092°09'0 0.0
2017-Oct-15 08:00N 29°47' W 092°09'0 0.0
2017-Oct-15 07:30N 29°47' W 092°09'0 0.0
2017-Oct-15 07:00N 29°47' W 092°09'0 0.0
2017-Oct-15 06:30N 29°47' W 092°09'0 0.0
2017-Oct-15 06:00N 29°47' W 092°09'0 0.0
2017-Oct-15 05:30N 29°47' W 092°09'0 0.0
2017-Oct-15 05:00N 29°47' W 092°09'0 0.0
2017-Oct-15 04:30N 29°47' W 092°09'0 0.0
2017-Oct-15 04:00N 29°47' W 092°09'0 0.0
2017-Oct-15 03:30N 29°47' W 092°09'0 0.0
2017-Oct-15 03:00N 29°47' W 092°09'0 0.0
2017-Oct-15 02:30N 29°47' W 092°09'0 0.0
2017-Oct-15 02:00N 29°47' W 092°09'0 0.0
2017-Oct-15 01:30N 29°47' W 092°09'0 0.0
2017-Oct-15 01:00N 29°47' W 092°09'0 0.0
2017-Oct-15 00:30N 29°47' W 092°09'0 0.0
2017-Oct-15 00:00N 29°47' W 092°09'0 0.0
2017-Oct-14 23:30N 29°47' W 092°09'0 0.0
2017-Oct-14 23:00N 29°47' W 092°09'0 0.0
2017-Oct-14 22:30N 29°47' W 092°09'0 0.0
2017-Oct-14 22:00N 29°47' W 092°09'0 0.0
2017-Oct-14 21:30N 29°47' W 092°09'0 0.0
2017-Oct-14 21:00N 29°47' W 092°09'0 0.0
2017-Oct-14 20:30N 29°47' W 092°09'0 0.0
2017-Oct-14 20:00N 29°47' W 092°09'0 0.0
2017-Oct-14 19:30N 29°47' W 092°09'0 0.0
2017-Oct-14 19:00N 29°47' W 092°09'0 0.0
2017-Oct-14 18:30N 29°47' W 092°09'4 8.5
2017-Oct-14 18:00N 29°45' W 092°13'12 0.3
2017-Oct-13 02:52N 29°34' W 092°18'719.6
2017-Oct-13 02:30N 29°40' W 092°15'714.8
2017-Oct-13 02:00N 29°47' W 092°11'0 0.0
2017-Oct-13 01:30N 29°47' W 092°11'0 0.0
2017-Oct-13 01:00N 29°47' W 092°11'0 0.0
2017-Oct-13 00:30N 29°47' W 092°11'2 4.1
2017-Oct-13 00:00N 29°47' W 092°09'0 0.0
2017-Oct-12 23:30N 29°47' W 092°09'  

Dump ship's entire track history